^^
TXWeather Station Historical Data
 
Daily Summary for October 01, 2022 Units:  English    Metric   Both
Daily Weekly Monthly Yearly Custom
  Current: High: Low: Average:
Temperature: 69.6 °F 85.5 °F 53.2 °F 69.9 °F
Dew Point: 53.8 °F 56.5 °F 48.4 °F 52.3 °F
Humidity: 57% 85% 34% 57%
Wind Speed: 3mph 11mph 0mph 3.3mph
Wind Gust: 4mph 12mph - -
WindNNE - - ENE
Pressure: 30.1 in 30.1 in 30.0 in -
Precipitation: 0.000 in      
Historical Graphs
 
 
Tabular Data for October 01, 2022
Time Temperature Dew Point Pressure Wind Wind Speed Wind Gust Humidity Rainfall Rate (Hourly) solar
00:04 62.8 °F 49.6 °F 30.0 in ENE 1 mph 1 mph 62% 0.000 in 0.00 W/m2
00:09 62.6 °F 49.6 °F 30.0 in ENE 1 mph 1 mph 63% 0.000 in 0.00 W/m2
00:14 62.2 °F 49.8 °F 30.0 in Calm   1 mph 64% 0.000 in 0.00 W/m2
00:19 61.9 °F 49.6 °F 30.0 in ENE 1 mph 1 mph 64% 0.000 in 0.00 W/m2
00:24 61.7 °F 49.6 °F 30.0 in ENE 1 mph 1 mph 65% 0.000 in 0.00 W/m2
00:29 61.3 °F 49.5 °F 30.0 in Calm     65% 0.000 in 0.00 W/m2
00:34 61.0 °F 49.5 °F 30.0 in Calm     66% 0.000 in 0.00 W/m2
00:39 61.0 °F 49.5 °F 30.0 in ENE 1 mph 1 mph 66% 0.000 in 0.00 W/m2
00:44 60.8 °F 49.5 °F 30.0 in Calm     66% 0.000 in 0.00 W/m2
00:49 61.0 °F 49.8 °F 30.0 in ENE 2 mph 2 mph 67% 0.000 in 0.00 W/m2
00:54 61.0 °F 49.5 °F 30.0 in ENE 2 mph 2 mph 66% 0.000 in 0.00 W/m2
00:59 60.6 °F 49.5 °F 30.0 in ENE 1 mph 1 mph 68% 0.000 in 0.00 W/m2
01:04 60.1 °F 49.5 °F 30.0 in ENE 1 mph 1 mph 68% 0.000 in 0.00 W/m2
01:09 60.3 °F 49.6 °F 30.0 in ENE 1 mph 1 mph 68% 0.000 in 0.00 W/m2
01:14 60.3 °F 49.6 °F 30.0 in Calm     68% 0.000 in 0.00 W/m2
01:19 59.9 °F 49.5 °F 30.0 in ENE 1 mph 1 mph 69% 0.000 in 0.00 W/m2
01:24 60.1 °F 50.0 °F 30.0 in ENE 1 mph 1 mph 70% 0.000 in 0.00 W/m2
01:29 60.1 °F 49.8 °F 30.0 in Calm     69% 0.000 in 0.00 W/m2
01:34 59.5 °F 49.5 °F 30.0 in ENE 1 mph 1 mph 70% 0.000 in 0.00 W/m2
01:39 59.2 °F 49.5 °F 30.0 in ENE 2 mph 2 mph 70% 0.000 in 0.00 W/m2
01:44 59.2 °F 49.5 °F 30.0 in ENE 2 mph 2 mph 70% 0.000 in 0.00 W/m2
01:49 59.2 °F 49.1 °F 30.0 in ENE 1 mph 1 mph 69% 0.000 in 0.00 W/m2
01:54 59.2 °F 49.3 °F 30.0 in ENE 1 mph 1 mph 70% 0.000 in 0.00 W/m2
01:59 59.2 °F 49.5 °F 30.0 in ENE 1 mph 1 mph 70% 0.000 in 0.00 W/m2
02:04 58.8 °F 49.3 °F 30.0 in Calm     71% 0.000 in 0.00 W/m2
02:09 58.6 °F 49.3 °F 30.0 in Calm     71% 0.000 in 0.00 W/m2
02:14 58.6 °F 49.5 °F 30.0 in Calm     72% 0.000 in 0.00 W/m2
02:19 58.5 °F 49.5 °F 30.0 in Calm     72% 0.000 in 0.00 W/m2
02:24 58.3 °F 49.3 °F 30.0 in Calm     72% 0.000 in 0.00 W/m2
02:29 58.3 °F 49.3 °F 30.0 in Calm     72% 0.000 in 0.00 W/m2
02:34 58.1 °F 49.1 °F 30.0 in Calm     72% 0.000 in 0.00 W/m2
02:39 58.3 °F 49.3 °F 30.0 in Calm     72% 0.000 in 0.00 W/m2
02:44 58.3 °F 49.3 °F 30.0 in ENE 1 mph 1 mph 72% 0.000 in 0.00 W/m2
02:49 57.9 °F 49.3 °F 30.0 in ENE 1 mph 1 mph 73% 0.000 in 0.00 W/m2
02:54 57.7 °F 49.1 °F 30.0 in ENE 1 mph 1 mph 73% 0.000 in 0.00 W/m2
02:59 57.4 °F 49.1 °F 30.0 in ENE 1 mph 1 mph 74% 0.000 in 0.00 W/m2
03:04 57.0 °F 48.9 °F 30.0 in Calm     75% 0.000 in 0.00 W/m2
03:09 56.7 °F 48.7 °F 30.0 in Calm     75% 0.000 in 0.00 W/m2
03:14 56.7 °F 49.1 °F 30.0 in Calm     76% 0.000 in 0.00 W/m2
03:19 56.7 °F 48.7 °F 30.0 in ENE 1 mph 1 mph 75% 0.000 in 0.00 W/m2
03:24 56.7 °F 48.7 °F 30.0 in ENE 2 mph 2 mph 75% 0.000 in 0.00 W/m2
03:29 56.5 °F 48.9 °F 30.0 in ENE 1 mph 2 mph 76% 0.000 in 0.00 W/m2
03:34 56.5 °F 48.9 °F 30.0 in ENE 1 mph 1 mph 76% 0.000 in 0.00 W/m2
03:39 56.3 °F 48.9 °F 30.0 in ENE 1 mph 1 mph 76% 0.000 in 0.00 W/m2
03:44 56.3 °F 48.9 °F 30.0 in ENE 1 mph 2 mph 76% 0.000 in 0.00 W/m2
03:49 56.1 °F 48.9 °F 30.0 in ENE 1 mph 1 mph 77% 0.000 in 0.00 W/m2
03:54 56.3 °F 49.1 °F 30.0 in ENE 1 mph 2 mph 77% 0.000 in 0.00 W/m2
03:59 56.1 °F 49.1 °F 30.0 in ENE 1 mph 1 mph 78% 0.000 in 0.00 W/m2
04:04 55.8 °F 48.9 °F 30.0 in Calm   1 mph 78% 0.000 in 0.00 W/m2
04:09 55.4 °F 48.9 °F 30.0 in ENE 1 mph 1 mph 79% 0.000 in 0.00 W/m2
04:14 55.8 °F 49.1 °F 30.0 in ENE 1 mph 1 mph 79% 0.000 in 0.00 W/m2
04:19 55.9 °F 49.1 °F 30.0 in ENE 2 mph 2 mph 78% 0.000 in 0.00 W/m2
04:24 55.9 °F 49.1 °F 30.0 in ENE 2 mph 2 mph 78% 0.000 in 0.00 W/m2
04:29 55.9 °F 49.1 °F 30.0 in ENE 2 mph 2 mph 78% 0.000 in 0.00 W/m2
04:34 55.9 °F 49.1 °F 30.0 in ENE 1 mph 2 mph 78% 0.000 in 0.00 W/m2
04:39 55.8 °F 48.9 °F 30.0 in ENE 1 mph 1 mph 78% 0.000 in 0.00 W/m2
04:44 55.6 °F 48.9 °F 30.0 in ENE 1 mph 1 mph 78% 0.000 in 0.00 W/m2
04:49 55.4 °F 48.9 °F 30.0 in ENE 1 mph 1 mph 79% 0.000 in 0.00 W/m2
04:54 55.2 °F 48.7 °F 30.0 in Calm   1 mph 79% 0.000 in 0.00 W/m2
04:59 54.9 °F 48.6 °F 30.0 in ENE 1 mph 1 mph 79% 0.000 in 0.00 W/m2
05:04 55.0 °F 48.9 °F 30.0 in Calm   1 mph 80% 0.000 in 0.00 W/m2
05:09 55.4 °F 49.5 °F 30.0 in Calm     81% 0.000 in 0.00 W/m2
05:14 55.4 °F 48.9 °F 30.0 in Calm     79% 0.000 in 0.00 W/m2
05:19 55.2 °F 49.8 °F 30.0 in Calm     82% 0.000 in 0.00 W/m2
05:24 55.2 °F 49.5 °F 30.0 in Calm     81% 0.000 in 0.00 W/m2
05:29 54.7 °F 48.9 °F 30.0 in Calm     81% 0.000 in 0.00 W/m2
05:34 54.7 °F 48.9 °F 30.1 in ENE 1 mph 1 mph 81% 0.000 in 0.00 W/m2
05:39 55.0 °F 48.9 °F 30.1 in ENE 1 mph 1 mph 81% 0.000 in 0.00 W/m2
05:44 55.0 °F 48.9 °F 30.1 in ENE 1 mph 1 mph 80% 0.000 in 0.00 W/m2
05:49 54.9 °F 48.7 °F 30.1 in Calm     80% 0.000 in 0.00 W/m2
05:54 54.7 °F 48.6 °F 30.1 in Calm     80% 0.000 in 0.00 W/m2
05:59 54.5 °F 48.6 °F 30.1 in Calm   1 mph 81% 0.000 in 0.00 W/m2
06:04 54.3 °F 48.6 °F 30.1 in Calm   1 mph 81% 0.000 in 0.00 W/m2
06:09 54.5 °F 48.7 °F 30.1 in Calm     81% 0.000 in 0.00 W/m2
06:14 54.1 °F 48.4 °F 30.1 in Calm     81% 0.000 in 0.00 W/m2
06:19 54.0 °F 48.6 °F 30.1 in ENE 1 mph 1 mph 82% 0.000 in 0.00 W/m2
06:24 54.0 °F 48.6 °F 30.1 in ENE 1 mph 1 mph 82% 0.000 in 0.00 W/m2
06:29 54.1 °F 48.7 °F 30.1 in ENE 1 mph 1 mph 82% 0.000 in 0.00 W/m2
06:34 54.3 °F 48.6 °F 30.1 in Calm   1 mph 81% 0.000 in 0.00 W/m2
06:39 54.1 °F 48.4 °F 30.1 in ENE 1 mph 1 mph 82% 0.000 in 0.00 W/m2
06:44 54.0 °F 48.6 °F 30.1 in ENE 1 mph 2 mph 82% 0.000 in 0.00 W/m2
06:49 54.1 °F 48.7 °F 30.1 in ENE 2 mph 2 mph 82% 0.000 in 0.00 W/m2
06:54 54.0 °F 48.6 °F 30.1 in Calm   1 mph 82% 0.000 in 0.00 W/m2
06:59 53.4 °F 48.4 °F 30.1 in Calm     83% 0.000 in 0.00 W/m2
07:04 53.4 °F 48.4 °F 30.1 in Calm     83% 0.000 in 0.00 W/m2
07:09 53.4 °F 48.6 °F 30.1 in Calm   1 mph 84% 0.000 in 0.00 W/m2
07:14 53.2 °F 48.6 °F 30.1 in ENE 1 mph 1 mph 84% 0.000 in 0.00 W/m2
07:19 53.4 °F 48.7 °F 30.1 in Calm   1 mph 84% 0.000 in 0.00 W/m2
07:24 53.4 °F 48.7 °F 30.1 in ENE 1 mph 1 mph 84% 0.000 in 0.00 W/m2
07:29 53.2 °F 48.6 °F 30.1 in ENE 1 mph 1 mph 84% 0.000 in 5.00 W/m2
07:34 53.2 °F 48.6 °F 30.1 in ENE 1 mph 1 mph 84% 0.000 in 5.00 W/m2
07:39 53.2 °F 48.6 °F 30.1 in Calm   1 mph 84% 0.000 in 7.00 W/m2
07:44 53.4 °F 48.7 °F 30.1 in Calm     84% 0.000 in 7.00 W/m2
07:49 54.0 °F 49.5 °F 30.1 in ENE 1 mph 1 mph 85% 0.000 in 9.00 W/m2
07:54 54.3 °F 49.6 °F 30.1 in Calm     84% 0.000 in 21.00 W/m2
07:59 54.9 °F 50.2 °F 30.1 in Calm     84% 0.000 in 54.00 W/m2
08:04 56.1 °F 50.7 °F 30.1 in ENE 2 mph 2 mph 83% 0.000 in 67.00 W/m2
08:09 57.2 °F 51.1 °F 30.1 in ENE 2 mph 2 mph 82% 0.000 in 72.00 W/m2
08:14 57.9 °F 51.4 °F 30.1 in NE 3 mph 3 mph 80% 0.000 in 67.00 W/m2
08:19 59.0 °F 51.8 °F 30.1 in NE 3 mph 3 mph 78% 0.000 in 53.00 W/m2
08:24 60.1 °F 52.2 °F 30.1 in NE 3 mph 3 mph 77% 0.000 in 76.00 W/m2
08:29 60.6 °F 52.3 °F 30.1 in NNE 3 mph 3 mph 75% 0.000 in 76.00 W/m2
08:34 61.2 °F 52.5 °F 30.1 in NNE 3 mph 3 mph 73% 0.000 in 42.00 W/m2
08:39 61.9 °F 52.7 °F 30.1 in North 4 mph 4 mph 73% 0.000 in 86.00 W/m2
08:44 62.4 °F 52.9 °F 30.1 in North 3 mph 3 mph 71% 0.000 in 86.00 W/m2
08:49 63.0 °F 53.1 °F 30.1 in North 4 mph 4 mph 70% 0.000 in 76.00 W/m2
08:54 63.3 °F 53.4 °F 30.1 in North 3 mph 4 mph 70% 0.000 in 77.00 W/m2
08:59 64.0 °F 53.4 °F 30.1 in NNE 3 mph 4 mph 69% 0.000 in 132.00 W/m2
09:04 64.8 °F 54.0 °F 30.1 in NNE 4 mph 4 mph 69% 0.000 in 155.00 W/m2
09:09 65.7 °F 53.8 °F 30.1 in NNE 3 mph 4 mph 67% 0.000 in 172.00 W/m2
09:14 66.6 °F 54.0 °F 30.1 in NNE 4 mph 4 mph 65% 0.000 in 202.00 W/m2
09:19 67.3 °F 54.0 °F 30.1 in ENE 4 mph 4 mph 64% 0.000 in 230.00 W/m2
09:24 68.4 °F 54.1 °F 30.1 in NE 4 mph 4 mph 62% 0.000 in 274.00 W/m2
09:29 68.9 °F 54.3 °F 30.1 in NE 4 mph 4 mph 60% 0.000 in 304.00 W/m2
09:34 69.4 °F 54.5 °F 30.1 in NE 4 mph 4 mph 59% 0.000 in 218.00 W/m2
09:39 70.2 °F 54.7 °F 30.1 in NNE 5 mph 7 mph 58% 0.000 in 345.00 W/m2
09:44 70.2 °F 54.7 °F 30.1 in NE 5 mph 5 mph 58% 0.000 in 364.00 W/m2
09:49 70.9 °F 55.0 °F 30.1 in NNE 5 mph 6 mph 58% 0.000 in 380.00 W/m2
09:54 71.2 °F 55.0 °F 30.1 in NNE 5 mph 5 mph 57% 0.000 in 392.00 W/m2
09:59 71.6 °F 55.4 °F 30.1 in NE 6 mph 7 mph 57% 0.000 in 397.00 W/m2
10:04 72.1 °F 54.7 °F 30.1 in NNE 5 mph 5 mph 55% 0.000 in 420.00 W/m2
10:09 72.9 °F 54.7 °F 30.1 in NE 5 mph 6 mph 54% 0.000 in 434.00 W/m2
10:14 73.0 °F 54.3 °F 30.1 in East 7 mph 8 mph 52% 0.000 in 446.00 W/m2
10:19 73.4 °F 54.7 °F 30.1 in East 7 mph 7 mph 52% 0.000 in 459.00 W/m2
10:24 73.9 °F 55.2 °F 30.1 in NE 8 mph 9 mph 52% 0.000 in 475.00 W/m2
10:29 74.1 °F 54.3 °F 30.1 in ENE 7 mph 8 mph 50% 0.000 in 485.00 W/m2
10:34 74.5 °F 54.7 °F 30.1 in East 7 mph 7 mph 50% 0.000 in 499.00 W/m2
10:39 75.6 °F 55.0 °F 30.1 in East 6 mph 6 mph 50% 0.000 in 512.00 W/m2
10:44 76.3 °F 55.6 °F 30.1 in ESE 7 mph 7 mph 49% 0.000 in 524.00 W/m2
10:49 76.1 °F 54.7 °F 30.1 in NE 7 mph 9 mph 48% 0.000 in 533.00 W/m2
10:54 75.9 °F 54.7 °F 30.1 in NE 9 mph 9 mph 48% 0.000 in 543.00 W/m2
10:59 77.2 °F 55.4 °F 30.1 in ENE 5 mph 9 mph 48% 0.000 in 554.00 W/m2
11:04 77.4 °F 55.6 °F 30.1 in East 8 mph 8 mph 47% 0.000 in 566.00 W/m2
11:09 77.5 °F 55.8 °F 30.1 in ENE 8 mph 8 mph 47% 0.000 in 575.00 W/m2
11:14 77.4 °F 55.0 °F 30.1 in NE 8 mph 8 mph 47% 0.000 in 585.00 W/m2
11:19 77.2 °F 55.0 °F 30.1 in NNE 8 mph 8 mph 47% 0.000 in 601.00 W/m2
11:24 77.7 °F 54.7 °F 30.1 in NE 7 mph 8 mph 45% 0.000 in 605.00 W/m2
11:29 77.7 °F 54.7 °F 30.1 in North 9 mph 9 mph 45% 0.000 in 619.00 W/m2
11:34 78.1 °F 55.0 °F 30.1 in East 6 mph 6 mph 46% 0.000 in 624.00 W/m2
11:39 78.8 °F 54.7 °F 30.1 in NNE 8 mph 9 mph 44% 0.000 in 629.00 W/m2
11:44 78.8 °F 54.3 °F 30.1 in North 7 mph 9 mph 43% 0.000 in 638.00 W/m2
11:49 78.4 °F 54.1 °F 30.1 in North 8 mph 9 mph 43% 0.000 in 650.00 W/m2
11:54 78.1 °F 53.2 °F 30.1 in NNE 4 mph 4 mph 43% 0.000 in 652.00 W/m2
11:59 78.3 °F 54.5 °F 30.1 in ENE 6 mph 6 mph 44% 0.000 in 657.00 W/m2
12:04 79.5 °F 54.9 °F 30.1 in ESE 3 mph 4 mph 44% 0.000 in 664.00 W/m2
12:09 79.9 °F 55.4 °F 30.1 in ESE 3 mph 4 mph 43% 0.000 in 671.00 W/m2
12:14 80.1 °F 55.4 °F 30.1 in ESE 5 mph 5 mph 43% 0.000 in 675.00 W/m2
12:19 79.3 °F 54.5 °F 30.1 in North 9 mph 9 mph 43% 0.000 in 684.00 W/m2
12:24 80.1 °F 54.5 °F 30.1 in NNW 5 mph 7 mph 42% 0.000 in 686.00 W/m2
12:29 80.1 °F 55.4 °F 30.1 in East 6 mph 6 mph 43% 0.000 in 689.00 W/m2
12:34 81.3 °F 55.2 °F 30.1 in SE 5 mph 5 mph 42% 0.000 in 693.00 W/m2
12:39 81.1 °F 54.3 °F 30.1 in NE 7 mph 7 mph 40% 0.000 in 698.00 W/m2
12:44 81.1 °F 54.5 °F 30.1 in NE 5 mph 6 mph 41% 0.000 in 701.00 W/m2
12:49 80.6 °F 54.5 °F 30.1 in ENE 9 mph 9 mph 41% 0.000 in 703.00 W/m2
12:54 80.4 °F 54.5 °F 30.1 in NNE 4 mph 9 mph 41% 0.000 in 703.00 W/m2
12:59 81.0 °F 54.9 °F 30.1 in East 8 mph 9 mph 41% 0.000 in 707.00 W/m2
13:04 81.0 °F 54.1 °F 30.1 in NNE 5 mph 8 mph 40% 0.000 in 707.00 W/m2
13:09 81.1 °F 53.8 °F 30.1 in ENE 8 mph 8 mph 39% 0.000 in 708.00 W/m2
13:14 82.0 °F 55.4 °F 30.1 in NNE 9 mph 9 mph 40% 0.000 in 710.00 W/m2
13:19 81.7 °F 54.3 °F 30.1 in NNE 8 mph 8 mph 39% 0.000 in 710.00 W/m2
13:24 80.4 °F 54.0 °F 30.1 in NNE 5 mph 5 mph 40% 0.000 in 708.00 W/m2
13:29 81.1 °F 54.5 °F 30.1 in NE 8 mph 9 mph 40% 0.000 in 705.00 W/m2
13:34 82.0 °F 55.2 °F 30.1 in NNE 10 mph 11 mph 40% 0.000 in 705.00 W/m2
13:39 82.0 °F 55.4 °F 30.1 in North 6 mph 10 mph 40% 0.000 in 703.00 W/m2
13:44 82.2 °F 55.4 °F 30.1 in North 8 mph 8 mph 40% 0.000 in 703.00 W/m2
13:49 81.7 °F 54.5 °F 30.1 in NW 4 mph 7 mph 40% 0.000 in 677.00 W/m2
13:54 82.9 °F 55.4 °F 30.1 in ENE 7 mph 7 mph 39% 0.000 in 577.00 W/m2
13:59 83.7 °F 55.2 °F 30.1 in NE 9 mph 9 mph 39% 0.000 in 577.00 W/m2
14:04 83.3 °F 54.1 °F 30.1 in NNE 4 mph 7 mph 37% 0.000 in 323.00 W/m2
14:09 82.9 °F 55.2 °F 30.1 in NE 6 mph 8 mph 39% 0.000 in 680.00 W/m2
14:14 82.9 °F 54.7 °F 30.1 in NE 10 mph 11 mph 38% 0.000 in 680.00 W/m2
14:19 83.1 °F 54.7 °F 30.1 in NE 8 mph 11 mph 38% 0.000 in 680.00 W/m2
14:24 83.5 °F 54.9 °F 30.1 in East 8 mph 8 mph 38% 0.000 in 677.00 W/m2
14:29 83.8 °F 56.1 °F 30.1 in NE 8 mph 8 mph 39% 0.000 in 670.00 W/m2
14:34 83.8 °F 54.9 °F 30.1 in NNE 9 mph 9 mph 37% 0.000 in 661.00 W/m2
14:39 83.8 °F 54.0 °F 30.1 in NNE 7 mph 8 mph 36% 0.000 in 657.00 W/m2
14:44 83.3 °F 53.6 °F 30.1 in North 9 mph 10 mph 36% 0.000 in 650.00 W/m2
14:49 83.8 °F 54.9 °F 30.0 in North 9 mph 11 mph 37% 0.000 in 635.00 W/m2
14:54 84.0 °F 54.9 °F 30.0 in NNE 8 mph 11 mph 37% 0.000 in 633.00 W/m2
14:59 84.0 °F 53.4 °F 30.0 in NE 4 mph 7 mph 36% 0.000 in 622.00 W/m2
15:04 83.7 °F 54.3 °F 30.0 in NNE 10 mph 10 mph 37% 0.000 in 617.00 W/m2
15:09 84.6 °F 56.5 °F 30.0 in SE 7 mph 8 mph 39% 0.000 in 613.00 W/m2
15:14 84.7 °F 56.3 °F 30.0 in ENE 4 mph 8 mph 38% 0.000 in 601.00 W/m2
15:19 84.6 °F 55.2 °F 30.0 in NNE 6 mph 10 mph 37% 0.000 in 592.00 W/m2
15:24 84.9 °F 55.0 °F 30.0 in NE 9 mph 10 mph 36% 0.000 in 582.00 W/m2
15:29 84.9 °F 54.1 °F 30.0 in NNE 11 mph 11 mph 35% 0.000 in 570.00 W/m2
15:34 84.9 °F 55.0 °F 30.0 in North 8 mph 11 mph 36% 0.000 in 561.00 W/m2
15:39 84.6 °F 54.7 °F 30.0 in North 5 mph 9 mph 36% 0.000 in 548.00 W/m2
15:44 84.6 °F 55.4 °F 30.0 in ESE 6 mph 6 mph 37% 0.000 in 540.00 W/m2
15:49 84.7 °F 54.0 °F 30.0 in East 8 mph 8 mph 36% 0.000 in 529.00 W/m2
15:54 84.9 °F 53.1 °F 30.0 in North 5 mph 6 mph 34% 0.000 in 517.00 W/m2
15:59 84.9 °F 54.1 °F 30.0 in NNE 11 mph 12 mph 35% 0.000 in 504.00 W/m2
16:04 85.5 °F 55.0 °F 30.0 in NNE 8 mph 12 mph 36% 0.000 in 490.00 W/m2
16:09 85.5 °F 54.0 °F 30.0 in North 8 mph 8 mph 35% 0.000 in 476.00 W/m2
16:14 84.6 °F 52.7 °F 30.0 in NNW 4 mph 8 mph 34% 0.000 in 466.00 W/m2
16:19 83.8 °F 55.4 °F 30.0 in SSE 3 mph 4 mph 38% 0.000 in 454.00 W/m2
16:24 85.3 °F 54.5 °F 30.0 in NE 9 mph 10 mph 36% 0.000 in 443.00 W/m2
16:29 85.3 °F 53.4 °F 30.0 in NNE 6 mph 9 mph 34% 0.000 in 427.00 W/m2
16:34 84.7 °F 53.4 °F 30.0 in NNE 3 mph 3 mph 35% 0.000 in 415.00 W/m2
16:39 84.7 °F 55.2 °F 30.0 in NE 4 mph 4 mph 37% 0.000 in 401.00 W/m2
16:44 84.7 °F 53.2 °F 30.0 in NE 4 mph 4 mph 34% 0.000 in 388.00 W/m2
16:49 85.1 °F 53.4 °F 30.0 in NNE 6 mph 6 mph 34% 0.000 in 374.00 W/m2
16:54 85.5 °F 53.8 °F 30.0 in NNE 9 mph 9 mph 34% 0.000 in 359.00 W/m2
16:59 85.5 °F 53.8 °F 30.0 in NE 4 mph 8 mph 34% 0.000 in 343.00 W/m2
17:04 84.7 °F 53.2 °F 30.0 in East 3 mph 4 mph 34% 0.000 in 330.00 W/m2
17:09 84.2 °F 53.6 °F 30.0 in ESE 4 mph 4 mph 35% 0.000 in 315.00 W/m2
17:14 84.4 °F 54.0 °F 30.0 in SE 8 mph 8 mph 36% 0.000 in 297.00 W/m2
17:19 84.6 °F 53.1 °F 30.0 in ENE 9 mph 9 mph 34% 0.000 in 285.00 W/m2
17:24 84.7 °F 53.2 °F 30.0 in NE 7 mph 7 mph 34% 0.000 in 269.00 W/m2
17:29 84.6 °F 53.1 °F 30.0 in NE 8 mph 8 mph 34% 0.000 in 255.00 W/m2
17:34 84.4 °F 53.4 °F 30.0 in East 7 mph 7 mph 35% 0.000 in 241.00 W/m2
17:39 84.4 °F 52.7 °F 30.0 in East 4 mph 7 mph 34% 0.000 in 227.00 W/m2
17:44 84.4 °F 53.6 °F 30.0 in ENE 5 mph 5 mph 35% 0.000 in 209.00 W/m2
17:49 84.4 °F 52.9 °F 30.0 in NNE 3 mph 5 mph 34% 0.000 in 195.00 W/m2
17:54 84.4 °F 52.9 °F 30.0 in ESE 5 mph 5 mph 35% 0.000 in 181.00 W/m2
17:59 83.3 °F 53.1 °F 30.0 in ESE 4 mph 5 mph 36% 0.000 in 165.00 W/m2
18:04 82.9 °F 53.1 °F 30.0 in ESE 5 mph 6 mph 36% 0.000 in 149.00 W/m2
18:09 83.1 °F 53.4 °F 30.0 in ESE 5 mph 7 mph 36% 0.000 in 134.00 W/m2
18:14 83.1 °F 52.7 °F 30.0 in NE 4 mph 4 mph 35% 0.000 in 114.00 W/m2
18:19 82.9 °F 53.1 °F 30.0 in NE 3 mph 4 mph 36% 0.000 in 98.00 W/m2
18:24 82.6 °F 53.4 °F 30.0 in ESE 3 mph 3 mph 37% 0.000 in 79.00 W/m2
18:29 82.0 °F 53.2 °F 30.0 in East 4 mph 4 mph 37% 0.000 in 21.00 W/m2
18:34 81.9 °F 53.1 °F 30.0 in East 2 mph 3 mph 37% 0.000 in 18.00 W/m2
18:39 81.7 °F 52.9 °F 30.0 in East 2 mph 2 mph 37% 0.000 in 16.00 W/m2
18:44 81.1 °F 53.1 °F 30.0 in East 2 mph 2 mph 38% 0.000 in 12.00 W/m2
18:49 81.0 °F 53.4 °F 30.0 in East 1 mph 2 mph 39% 0.000 in 11.00 W/m2
18:54 80.4 °F 53.2 °F 30.0 in East 3 mph 3 mph 39% 0.000 in 9.00 W/m2
18:59 80.1 °F 52.9 °F 30.0 in ESE 3 mph 3 mph 39% 0.000 in 5.00 W/m2
19:04 79.9 °F 52.7 °F 30.0 in ESE 3 mph 3 mph 39% 0.000 in 5.00 W/m2
19:09 79.9 °F 53.4 °F 30.0 in ESE 1 mph 2 mph 40% 0.000 in 0.00 W/m2
19:14 79.5 °F 53.1 °F 30.0 in ESE 2 mph 2 mph 40% 0.000 in 0.00 W/m2
19:19 79.3 °F 53.4 °F 30.0 in ESE 3 mph 3 mph 41% 0.000 in 0.00 W/m2
19:24 79.0 °F 53.2 °F 30.0 in ESE 2 mph 2 mph 41% 0.000 in 0.00 W/m2
19:29 78.4 °F 53.4 °F 30.0 in ESE 2 mph 2 mph 42% 0.000 in 0.00 W/m2
19:34 78.3 °F 53.4 °F 30.0 in ESE 1 mph 1 mph 43% 0.000 in 0.00 W/m2
19:39 77.7 °F 53.2 °F 30.0 in Calm   1 mph 43% 0.000 in 0.00 W/m2
19:44 77.4 °F 53.2 °F 30.0 in ESE 1 mph 2 mph 44% 0.000 in 0.00 W/m2
19:49 76.6 °F 54.1 °F 30.0 in ESE 1 mph 1 mph 47% 0.000 in 0.00 W/m2
19:54 75.6 °F 54.0 °F 30.0 in ESE 1 mph 1 mph 48% 0.000 in 0.00 W/m2
19:59 74.8 °F 54.3 °F 30.0 in Calm     49% 0.000 in 0.00 W/m2
20:04 74.3 °F 54.5 °F 30.1 in ESE 1 mph 1 mph 50% 0.000 in 0.00 W/m2
20:09 73.8 °F 54.5 °F 30.1 in Calm   1 mph 51% 0.000 in 0.00 W/m2
20:14 73.4 °F 54.5 °F 30.1 in ESE 1 mph 1 mph 52% 0.000 in 0.00 W/m2
20:19 73.0 °F 54.3 °F 30.1 in ESE 2 mph 2 mph 52% 0.000 in 0.00 W/m2
20:24 73.0 °F 54.5 °F 30.1 in East 2 mph 3 mph 53% 0.000 in 0.00 W/m2
20:29 72.5 °F 54.7 °F 30.1 in ENE 2 mph 3 mph 54% 0.000 in 0.00 W/m2
20:34 72.1 °F 54.5 °F 30.1 in ENE 2 mph 2 mph 54% 0.000 in 0.00 W/m2
20:39 72.0 °F 54.5 °F 30.1 in ENE 2 mph 2 mph 55% 0.000 in 0.00 W/m2
20:44 71.2 °F 54.7 °F 30.1 in ENE 2 mph 2 mph 56% 0.000 in 0.00 W/m2
20:49 71.2 °F 54.5 °F 30.1 in NE 4 mph 4 mph 56% 0.000 in 0.00 W/m2
20:54 70.5 °F 54.5 °F 30.1 in NNE 3 mph 4 mph 57% 0.000 in 0.00 W/m2
20:59 70.5 °F 54.5 °F 30.1 in NNE 1 mph 1 mph 57% 0.000 in 0.00 W/m2
21:04 70.7 °F 54.3 °F 30.1 in NNE 1 mph 1 mph 56% 0.000 in 0.00 W/m2
21:09 70.7 °F 54.3 °F 30.1 in Calm     56% 0.000 in 0.00 W/m2
21:14 70.5 °F 54.1 °F 30.1 in NNE 2 mph 2 mph 56% 0.000 in 0.00 W/m2
21:19 70.5 °F 54.3 °F 30.1 in NNE 3 mph 3 mph 57% 0.000 in 0.00 W/m2
21:24 70.3 °F 54.3 °F 30.1 in NNE 2 mph 3 mph 57% 0.000 in 0.00 W/m2
21:29 70.2 °F 54.1 °F 30.1 in NNE 2 mph 2 mph 57% 0.000 in 0.00 W/m2
21:34 70.2 °F 54.7 °F 30.1 in NNE 2 mph 2 mph 58% 0.000 in 0.00 W/m2
21:39 70.0 °F 54.5 °F 30.1 in NNE 1 mph 2 mph 58% 0.000 in 0.00 W/m2
21:44 70.0 °F 54.5 °F 30.1 in NNE 1 mph 2 mph 58% 0.000 in 0.00 W/m2
21:49 69.8 °F 54.3 °F 30.1 in NNE 1 mph 2 mph 58% 0.000 in 0.00 W/m2
21:54 69.6 °F 54.1 °F 30.1 in NNE 1 mph 1 mph 58% 0.000 in 0.00 W/m2
21:59 69.3 °F 53.8 °F 30.1 in NNE 2 mph 2 mph 58% 0.000 in 0.00 W/m2
22:04 69.4 °F 53.6 °F 30.1 in NNE 3 mph 3 mph 57% 0.000 in 0.00 W/m2
22:09 69.6 °F 53.8 °F 30.1 in NNE 3 mph 4 mph 57% 0.000 in 0.00 W/m2
Villages of Bridgestone, Spring, TX USA
Compliments of Weather Underground - 4 mb